sensor_id;sensor_type;location;lat;lon;timestamp;pressure;altitude;pressure_sealevel;temperature;humidity
64889;BME280;51386;53.082;8.816;2023-11-21T00:01:23;100872.44;;;13.48;70.12
64889;BME280;51386;53.082;8.816;2023-11-21T00:03:52;100872.63;;;13.46;70.20
64889;BME280;51386;53.082;8.816;2023-11-21T00:06:23;100878.75;;;13.47;70.56
64889;BME280;51386;53.082;8.816;2023-11-21T00:08:51;100882.00;;;13.49;70.57
64889;BME280;51386;53.082;8.816;2023-11-21T00:11:19;100879.38;;;13.49;70.36
64889;BME280;51386;53.082;8.816;2023-11-21T00:13:48;100872.63;;;13.46;70.61
64889;BME280;51386;53.082;8.816;2023-11-21T00:16:17;100879.56;;;13.47;70.28
64889;BME280;51386;53.082;8.816;2023-11-21T00:18:46;100880.56;;;13.46;70.73
64889;BME280;51386;53.082;8.816;2023-11-21T00:21:14;100881.56;;;13.45;70.71
64889;BME280;51386;53.082;8.816;2023-11-21T00:23:43;100884.59;;;13.42;70.41
64889;BME280;51386;53.082;8.816;2023-11-21T00:26:11;100879.50;;;13.41;70.68
64889;BME280;51386;53.082;8.816;2023-11-21T00:28:39;100882.13;;;13.41;70.44
64889;BME280;51386;53.082;8.816;2023-11-21T00:31:08;100887.63;;;13.39;70.79
64889;BME280;51386;53.082;8.816;2023-11-21T00:33:37;100892.91;;;13.39;70.90
64889;BME280;51386;53.082;8.816;2023-11-21T00:36:05;100879.06;;;13.37;70.63
64889;BME280;51386;53.082;8.816;2023-11-21T00:38:37;100884.34;;;13.37;71.01
64889;BME280;51386;53.082;8.816;2023-11-21T00:41:07;100882.69;;;13.36;71.29
64889;BME280;51386;53.082;8.816;2023-11-21T00:43:36;100885.19;;;13.38;71.26
64889;BME280;51386;53.082;8.816;2023-11-21T00:46:08;100885.97;;;13.38;70.81
64889;BME280;51386;53.082;8.816;2023-11-21T00:48:36;100892.91;;;13.39;71.06
64889;BME280;51386;53.082;8.816;2023-11-21T00:51:05;100902.28;;;13.42;71.32
64889;BME280;51386;53.082;8.816;2023-11-21T00:53:34;100903.13;;;13.42;71.41
64889;BME280;51386;53.082;8.816;2023-11-21T00:56:02;100901.28;;;13.43;71.39
64889;BME280;51386;53.082;8.816;2023-11-21T00:58:31;100913.69;;;13.42;71.46
64889;BME280;51386;53.082;8.816;2023-11-21T01:00:59;100910.22;;;13.42;71.07
64889;BME280;51386;53.082;8.816;2023-11-21T01:03:27;100913.06;;;13.40;71.04
64889;BME280;51386;53.082;8.816;2023-11-21T01:05:56;100916.06;;;13.37;71.01
64889;BME280;51386;53.082;8.816;2023-11-21T01:08:24;100926.66;;;13.37;71.29
64889;BME280;51386;53.082;8.816;2023-11-21T01:10:53;100926.66;;;13.37;71.29
64889;BME280;51386;53.082;8.816;2023-11-21T01:13:21;100917.28;;;13.35;71.18
64889;BME280;51386;53.082;8.816;2023-11-21T01:15:50;100925.19;;;13.35;71.33
64889;BME280;51386;53.082;8.816;2023-11-21T01:18:18;100921.94;;;13.33;71.13
64889;BME280;51386;53.082;8.816;2023-11-21T01:20:47;100928.22;;;13.32;71.25
64889;BME280;51386;53.082;8.816;2023-11-21T01:23:15;100938.97;;;13.30;71.52
64889;BME280;51386;53.082;8.816;2023-11-21T01:25:43;100933.88;;;13.29;71.17
64889;BME280;51386;53.082;8.816;2023-11-21T01:28:12;100939.97;;;13.29;71.34
64889;BME280;51386;53.082;8.816;2023-11-21T01:30:40;100941.00;;;13.28;71.51
64889;BME280;51386;53.082;8.816;2023-11-21T01:33:09;100938.34;;;13.28;71.63
64889;BME280;51386;53.082;8.816;2023-11-21T01:35:37;100943.66;;;13.28;71.29
64889;BME280;51386;53.082;8.816;2023-11-21T01:38:05;100943.81;;;13.27;71.55
64889;BME280;51386;53.082;8.816;2023-11-21T01:40:36;100942.34;;;13.24;71.27
64889;BME280;51386;53.082;8.816;2023-11-21T01:43:04;100944.38;;;13.22;71.57
64889;BME280;51386;53.082;8.816;2023-11-21T01:45:32;100948.84;;;13.22;71.67
64889;BME280;51386;53.082;8.816;2023-11-21T01:48:02;100945.41;;;13.21;71.71
64889;BME280;51386;53.082;8.816;2023-11-21T01:50:31;100956.97;;;13.20;71.63
64889;BME280;51386;53.082;8.816;2023-11-21T01:53:00;100957.78;;;13.21;71.94
64889;BME280;51386;53.082;8.816;2023-11-21T01:55:29;100963.06;;;13.21;71.72
64889;BME280;51386;53.082;8.816;2023-11-21T01:57:58;100956.97;;;13.20;71.86
64889;BME280;51386;53.082;8.816;2023-11-21T02:00:26;100954.31;;;13.20;71.78
64889;BME280;51386;53.082;8.816;2023-11-21T02:02:57;100962.25;;;13.20;72.08
64889;BME280;51386;53.082;8.816;2023-11-21T02:05:27;100960.59;;;13.19;71.90
64889;BME280;51386;53.082;8.816;2023-11-21T02:07:57;100966.53;;;13.21;72.11
64889;BME280;51386;53.082;8.816;2023-11-21T02:10:25;100970.44;;;13.25;72.46
64889;BME280;51386;53.082;8.816;2023-11-21T02:12:54;100973.72;;;13.27;72.16
64889;BME280;51386;53.082;8.816;2023-11-21T02:15:24;100974.34;;;13.29;72.30
64889;BME280;51386;53.082;8.816;2023-11-21T02:17:56;100976.00;;;13.30;72.14
64889;BME280;51386;53.082;8.816;2023-11-21T02:20:26;100985.53;;;13.31;72.34
64889;BME280;51386;53.082;8.816;2023-11-21T02:22:58;100990.84;;;13.31;72.05
64889;BME280;51386;53.082;8.816;2023-11-21T02:25:30;100996.59;;;13.35;72.06
64889;BME280;51386;53.082;8.816;2023-11-21T02:28:03;100999.66;;;13.38;72.33
64889;BME280;51386;53.082;8.816;2023-11-21T02:30:32;101010.88;;;13.40;72.12
64889;BME280;51386;53.082;8.816;2023-11-21T02:33:01;101009.88;;;13.41;72.22
64889;BME280;51386;53.082;8.816;2023-11-21T02:35:30;101008.41;;;13.39;72.16
64889;BME280;51386;53.082;8.816;2023-11-21T02:37:59;101012.72;;;13.40;72.23
64889;BME280;51386;53.082;8.816;2023-11-21T02:40:28;101010.88;;;13.40;72.47
64889;BME280;51386;53.082;8.816;2023-11-21T02:42:57;101018.81;;;13.40;72.05
64889;BME280;51386;53.082;8.816;2023-11-21T02:45:27;101015.16;;;13.41;72.25
64889;BME280;51386;53.082;8.816;2023-11-21T02:47:55;101015.78;;;13.43;72.55
64889;BME280;51386;53.082;8.816;2023-11-21T02:50:25;101017.06;;;13.47;72.59
64889;BME280;51386;53.082;8.816;2023-11-21T02:52:55;101015.06;;;13.49;72.80
64889;BME280;51386;53.082;8.816;2023-11-21T02:55:26;101015.31;;;13.54;72.74
64889;BME280;51386;53.082;8.816;2023-11-21T02:57:55;101013.94;;;13.58;72.30
64889;BME280;51386;53.082;8.816;2023-11-21T03:00:25;101022.50;;;13.61;72.60
64889;BME280;51386;53.082;8.816;2023-11-21T03:02:56;101024.16;;;13.62;72.29
64889;BME280;51386;53.082;8.816;2023-11-21T03:05:24;101028.41;;;13.63;72.14
64889;BME280;51386;53.082;8.816;2023-11-21T03:07:53;101032.72;;;13.64;72.15
64889;BME280;51386;53.082;8.816;2023-11-21T03:10:21;101029.88;;;13.65;71.97
64889;BME280;51386;53.082;8.816;2023-11-21T03:12:50;101033.34;;;13.66;72.00
64889;BME280;51386;53.082;8.816;2023-11-21T03:15:18;101037.44;;;13.68;72.08
64889;BME280;51386;53.082;8.816;2023-11-21T03:17:46;101037.25;;;13.70;72.12
64889;BME280;51386;53.082;8.816;2023-11-21T03:20:17;101040.50;;;13.72;71.98
64889;BME280;51386;53.082;8.816;2023-11-21T03:22:45;101041.16;;;13.74;71.72
64889;BME280;51386;53.082;8.816;2023-11-21T03:25:16;101042.78;;;13.75;71.59
64889;BME280;51386;53.082;8.816;2023-11-21T03:27:45;101045.00;;;13.71;71.46
64889;BME280;51386;53.082;8.816;2023-11-21T03:30:13;101049.00;;;13.67;71.62
64889;BME280;51386;53.082;8.816;2023-11-21T03:32:42;101054.28;;;13.67;71.48
64889;BME280;51386;53.082;8.816;2023-11-21T03:35:10;101057.59;;;13.69;71.93
64889;BME280;51386;53.082;8.816;2023-11-21T03:37:39;101056.78;;;13.69;71.59
64889;BME280;51386;53.082;8.816;2023-11-21T03:40:09;101064.63;;;13.62;71.06
64889;BME280;51386;53.082;8.816;2023-11-21T03:42:38;101073.78;;;13.60;71.69
64889;BME280;51386;53.082;8.816;2023-11-21T03:45:08;101079.22;;;13.58;71.15
64889;BME280;51386;53.082;8.816;2023-11-21T03:47:37;101077.41;;;13.58;71.63
64889;BME280;51386;53.082;8.816;2023-11-21T03:50:05;101084.50;;;13.58;71.38
64889;BME280;51386;53.082;8.816;2023-11-21T03:52:35;101083.06;;;13.55;71.37
64889;BME280;51386;53.082;8.816;2023-11-21T03:55:03;101085.06;;;13.53;71.36
64889;BME280;51386;53.082;8.816;2023-11-21T03:57:32;101090.38;;;13.53;71.47
64889;BME280;51386;53.082;8.816;2023-11-21T04:00:00;101104.22;;;13.55;71.40
64889;BME280;51386;53.082;8.816;2023-11-21T04:02:28;101100.59;;;13.56;71.60
64889;BME280;51386;53.082;8.816;2023-11-21T04:04:57;101107.50;;;13.57;71.02
64889;BME280;51386;53.082;8.816;2023-11-21T04:07:26;101114.63;;;13.57;71.10
64889;BME280;51386;53.082;8.816;2023-11-21T04:09:55;101116.81;;;13.53;71.08
64889;BME280;51386;53.082;8.816;2023-11-21T04:12:23;101132.25;;;13.50;70.93
64889;BME280;51386;53.082;8.816;2023-11-21T04:14:52;101129.22;;;13.38;70.34
64889;BME280;51386;53.082;8.816;2023-11-21T04:17:22;101133.50;;;13.25;70.89
64889;BME280;51386;53.082;8.816;2023-11-21T04:19:50;101134.13;;;13.12;70.86
64889;BME280;51386;53.082;8.816;2023-11-21T04:22:18;101139.56;;;12.96;70.89
64889;BME280;51386;53.082;8.816;2023-11-21T04:24:47;101135.59;;;12.77;70.86
64889;BME280;51386;53.082;8.816;2023-11-21T04:27:15;101151.69;;;12.68;71.54
64889;BME280;51386;53.082;8.816;2023-11-21T04:29:44;101152.22;;;12.63;71.78
64889;BME280;51386;53.082;8.816;2023-11-21T04:32:13;101159.72;;;12.60;72.02
64889;BME280;51386;53.082;8.816;2023-11-21T04:34:41;101161.97;;;12.63;72.37
64889;BME280;51386;53.082;8.816;2023-11-21T04:37:09;101160.78;;;12.65;71.82
64889;BME280;51386;53.082;8.816;2023-11-21T04:39:38;101163.34;;;12.59;71.64
64889;BME280;51386;53.082;8.816;2023-11-21T04:42:07;101168.66;;;12.51;71.36
64889;BME280;51386;53.082;8.816;2023-11-21T04:44:35;101170.03;;;12.47;71.72
64889;BME280;51386;53.082;8.816;2023-11-21T04:47:04;101170.03;;;12.47;71.75
64889;BME280;51386;53.082;8.816;2023-11-21T04:49:33;101175.31;;;12.47;71.40
64889;BME280;51386;53.082;8.816;2023-11-21T04:52:02;101184.19;;;12.46;71.41
64889;BME280;51386;53.082;8.816;2023-11-21T04:54:31;101185.38;;;12.43;71.32
64889;BME280;51386;53.082;8.816;2023-11-21T04:56:59;101200.75;;;12.40;70.98
64889;BME280;51386;53.082;8.816;2023-11-21T04:59:28;101201.28;;;12.35;71.02
64889;BME280;51386;53.082;8.816;2023-11-21T05:01:57;101202.25;;;12.34;71.10
64889;BME280;51386;53.082;8.816;2023-11-21T05:04:25;101205.91;;;12.33;71.01
64889;BME280;51386;53.082;8.816;2023-11-21T05:06:54;101210.38;;;12.33;71.32
64889;BME280;51386;53.082;8.816;2023-11-21T05:09:22;101207.72;;;12.33;71.06
64889;BME280;51386;53.082;8.816;2023-11-21T05:11:51;101213.34;;;12.30;70.42
64889;BME280;51386;53.082;8.816;2023-11-21T05:14:21;101220.63;;;12.28;70.77
64889;BME280;51386;53.082;8.816;2023-11-21T05:16:50;101222.63;;;12.26;70.98
64889;BME280;51386;53.082;8.816;2023-11-21T05:19:22;101239.28;;;12.26;70.97
64889;BME280;51386;53.082;8.816;2023-11-21T05:21:50;101230.53;;;12.26;71.13
64889;BME280;51386;53.082;8.816;2023-11-21T05:24:19;101240.09;;;12.27;70.80
64889;BME280;51386;53.082;8.816;2023-11-21T05:26:47;101249.66;;;12.28;70.70
64889;BME280;51386;53.082;8.816;2023-11-21T05:29:15;101249.66;;;12.28;70.68
64889;BME280;51386;53.082;8.816;2023-11-21T05:31:44;101246.38;;;12.26;70.27
64889;BME280;51386;53.082;8.816;2023-11-21T05:34:12;101252.31;;;12.19;69.96
64889;BME280;51386;53.082;8.816;2023-11-21T05:36:44;101254.00;;;12.12;69.55
64889;BME280;51386;53.082;8.816;2023-11-21T05:39:15;101265.91;;;12.08;69.87
64889;BME280;51386;53.082;8.816;2023-11-21T05:41:45;101271.88;;;12.02;69.24
64889;BME280;51386;53.082;8.816;2023-11-21T05:44:16;101276.66;;;11.99;69.72
64889;BME280;51386;53.082;8.816;2023-11-21T05:46:45;101292.66;;;11.97;69.55
64889;BME280;51386;53.082;8.816;2023-11-21T05:49:13;101296.63;;;11.93;69.44
64889;BME280;51386;53.082;8.816;2023-11-21T05:51:42;101289.91;;;11.91;69.64
64889;BME280;51386;53.082;8.816;2023-11-21T05:54:10;101293.50;;;11.90;69.48
64889;BME280;51386;53.082;8.816;2023-11-21T05:56:38;101303.91;;;11.83;68.42
64889;BME280;51386;53.082;8.816;2023-11-21T05:59:07;101307.06;;;11.79;69.07
64889;BME280;51386;53.082;8.816;2023-11-21T06:01:35;101309.84;;;11.77;69.16
64889;BME280;51386;53.082;8.816;2023-11-21T06:04:06;101315.47;;;11.74;68.77
64889;BME280;51386;53.082;8.816;2023-11-21T06:06:37;101318.09;;;11.66;67.92
64889;BME280;51386;53.082;8.816;2023-11-21T06:09:06;101325.69;;;11.61;68.21
64889;BME280;51386;53.082;8.816;2023-11-21T06:11:37;101331.94;;;11.60;68.79
64889;BME280;51386;53.082;8.816;2023-11-21T06:14:05;101334.56;;;11.60;68.76
64889;BME280;51386;53.082;8.816;2023-11-21T06:16:36;101336.22;;;11.61;68.63
64889;BME280;51386;53.082;8.816;2023-11-21T06:19:04;101349.56;;;11.60;68.51
64889;BME280;51386;53.082;8.816;2023-11-21T06:21:33;101340.19;;;11.57;68.52
64889;BME280;51386;53.082;8.816;2023-11-21T06:24:02;101344.81;;;11.55;68.56
64889;BME280;51386;53.082;8.816;2023-11-21T06:26:30;101351.88;;;11.54;68.44
64889;BME280;51386;53.082;8.816;2023-11-21T06:28:59;101362.44;;;11.54;68.50
64889;BME280;51386;53.082;8.816;2023-11-21T06:31:29;101363.25;;;11.55;68.50
64889;BME280;51386;53.082;8.816;2023-11-21T06:33:58;101372.81;;;11.56;68.52
64889;BME280;51386;53.082;8.816;2023-11-21T06:36:28;101370.16;;;11.56;68.18
64889;BME280;51386;53.082;8.816;2023-11-21T06:38:56;101386.66;;;11.50;68.04
64889;BME280;51386;53.082;8.816;2023-11-21T06:41:24;101391.94;;;11.50;68.06
64889;BME280;51386;53.082;8.816;2023-11-21T06:43:53;101396.38;;;11.49;68.30
64889;BME280;51386;53.082;8.816;2023-11-21T06:46:21;101400.81;;;11.49;68.33
64889;BME280;51386;53.082;8.816;2023-11-21T06:48:50;101406.09;;;11.49;68.14
64889;BME280;51386;53.082;8.816;2023-11-21T06:51:18;101415.00;;;11.48;67.85
64889;BME280;51386;53.082;8.816;2023-11-21T06:53:46;101420.25;;;11.48;67.82
64889;BME280;51386;53.082;8.816;2023-11-21T06:56:17;101426.34;;;11.48;67.76
64889;BME280;51386;53.082;8.816;2023-11-21T06:58:46;101429.16;;;11.47;67.95
64889;BME280;51386;53.082;8.816;2023-11-21T07:01:14;101429.47;;;11.44;67.59
64889;BME280;51386;53.082;8.816;2023-11-21T07:03:43;101428.63;;;11.43;67.74
64889;BME280;51386;53.082;8.816;2023-11-21T07:06:11;101443.16;;;11.47;68.40
64889;BME280;51386;53.082;8.816;2023-11-21T07:08:43;101458.47;;;11.52;68.11
64889;BME280;51386;53.082;8.816;2023-11-21T07:11:11;101456.50;;;11.54;67.96
64889;BME280;51386;53.082;8.816;2023-11-21T07:13:40;101460.81;;;11.55;67.76
64889;BME280;51386;53.082;8.816;2023-11-21T07:16:08;101454.69;;;11.54;67.93
64889;BME280;51386;53.082;8.816;2023-11-21T07:18:38;101463.94;;;11.58;68.11
64889;BME280;51386;53.082;8.816;2023-11-21T07:21:06;101464.75;;;11.59;67.91
64889;BME280;51386;53.082;8.816;2023-11-21T07:23:36;101460.31;;;11.60;67.73
64889;BME280;51386;53.082;8.816;2023-11-21T07:26:05;101458.16;;;11.55;67.16
64889;BME280;51386;53.082;8.816;2023-11-21T07:28:38;101466.22;;;11.53;67.53
64889;BME280;51386;53.082;8.816;2023-11-21T07:31:07;101472.63;;;11.51;67.30
64889;BME280;51386;53.082;8.816;2023-11-21T07:33:37;101472.63;;;11.51;67.62
64889;BME280;51386;53.082;8.816;2023-11-21T07:36:06;101477.91;;;11.51;67.47
64889;BME280;51386;53.082;8.816;2023-11-21T07:38:35;101479.41;;;11.53;67.68
64889;BME280;51386;53.082;8.816;2023-11-21T07:41:03;101489.81;;;11.55;67.61
64889;BME280;51386;53.082;8.816;2023-11-21T07:43:42;101487.31;;;11.53;67.56
64889;BME280;51386;53.082;8.816;2023-11-21T07:46:11;101492.25;;;11.48;66.55
64889;BME280;51386;53.082;8.816;2023-11-21T07:48:43;101498.00;;;11.44;67.10
64889;BME280;51386;53.082;8.816;2023-11-21T07:51:11;101501.63;;;11.43;67.12
64889;BME280;51386;53.082;8.816;2023-11-21T07:53:41;101508.06;;;11.40;66.61
64889;BME280;51386;53.082;8.816;2023-11-21T07:56:09;101511.84;;;11.38;66.59
64889;BME280;51386;53.082;8.816;2023-11-21T07:58:38;101527.00;;;11.36;66.97
64889;BME280;51386;53.082;8.816;2023-11-21T08:01:06;101535.25;;;11.41;67.15
64889;BME280;51386;53.082;8.816;2023-11-21T08:03:36;101528.78;;;11.43;66.91
64889;BME280;51386;53.082;8.816;2023-11-21T08:06:04;101534.59;;;11.47;67.25
64889;BME280;51386;53.082;8.816;2023-11-21T08:08:33;101539.19;;;11.53;67.13
64889;BME280;51386;53.082;8.816;2023-11-21T08:11:02;101536.25;;;11.56;66.88
64889;BME280;51386;53.082;8.816;2023-11-21T08:13:32;101543.84;;;11.59;67.15
64889;BME280;51386;53.082;8.816;2023-11-21T08:16:00;101543.53;;;11.62;66.37
64889;BME280;51386;53.082;8.816;2023-11-21T08:18:32;101550.75;;;11.60;66.18
64889;BME280;51386;53.082;8.816;2023-11-21T08:21:02;101549.13;;;11.59;66.09
64889;BME280;51386;53.082;8.816;2023-11-21T08:23:31;101550.75;;;11.60;66.27
64889;BME280;51386;53.082;8.816;2023-11-21T08:26:00;101557.38;;;11.64;66.68
64889;BME280;51386;53.082;8.816;2023-11-21T08:28:32;101563.84;;;11.70;66.63
64889;BME280;51386;53.082;8.816;2023-11-21T08:31:01;101564.19;;;11.75;66.36
64889;BME280;51386;53.082;8.816;2023-11-21T08:33:29;101567.00;;;11.81;66.35
64889;BME280;51386;53.082;8.816;2023-11-21T08:35:58;101570.97;;;11.85;66.02
64889;BME280;51386;53.082;8.816;2023-11-21T08:38:26;101584.66;;;11.89;65.91
64889;BME280;51386;53.082;8.816;2023-11-21T08:40:56;101590.75;;;11.89;65.76
64889;BME280;51386;53.082;8.816;2023-11-21T08:43:25;101596.38;;;11.94;66.15
64889;BME280;51386;53.082;8.816;2023-11-21T08:45:55;101596.19;;;11.96;65.60
64889;BME280;51386;53.082;8.816;2023-11-21T08:48:24;101595.06;;;11.98;65.91
64889;BME280;51386;53.082;8.816;2023-11-21T08:50:52;101603.31;;;12.03;65.80
64889;BME280;51386;53.082;8.816;2023-11-21T08:53:21;101599.69;;;12.04;65.41
64889;BME280;51386;53.082;8.816;2023-11-21T08:55:49;101605.63;;;12.06;65.20
64889;BME280;51386;53.082;8.816;2023-11-21T08:58:18;101605.31;;;12.09;65.33
64889;BME280;51386;53.082;8.816;2023-11-21T09:00:46;101617.19;;;12.13;65.78
64889;BME280;51386;53.082;8.816;2023-11-21T09:03:14;101618.00;;;12.14;65.16
64889;BME280;51386;53.082;8.816;2023-11-21T09:05:43;101625.44;;;12.18;65.74
64889;BME280;51386;53.082;8.816;2023-11-21T09:08:12;101623.47;;;12.20;65.05
64889;BME280;51386;53.082;8.816;2023-11-21T09:10:41;101644.25;;;12.23;64.90
64889;BME280;51386;53.082;8.816;2023-11-21T09:13:11;101644.91;;;12.26;64.44
64889;BME280;51386;53.082;8.816;2023-11-21T09:15:40;101656.31;;;12.26;64.27
64889;BME280;51386;53.082;8.816;2023-11-21T09:18:08;101656.13;;;12.28;64.22
64889;BME280;51386;53.082;8.816;2023-11-21T09:20:38;101656.47;;;12.33;64.69
64889;BME280;51386;53.082;8.816;2023-11-21T09:23:07;101661.41;;;12.44;64.82
64889;BME280;51386;53.082;8.816;2023-11-21T09:25:36;101675.13;;;12.55;65.04
64889;BME280;51386;53.082;8.816;2023-11-21T09:28:05;101676.47;;;12.59;63.78
64889;BME280;51386;53.082;8.816;2023-11-21T09:30:36;101671.00;;;12.61;63.73
64889;BME280;51386;53.082;8.816;2023-11-21T09:33:05;101679.94;;;12.60;62.68
64889;BME280;51386;53.082;8.816;2023-11-21T09:35:34;101694.44;;;12.56;62.36
64889;BME280;51386;53.082;8.816;2023-11-21T09:38:03;101689.66;;;12.51;62.77
64889;BME280;51386;53.082;8.816;2023-11-21T09:40:33;101695.44;;;12.47;62.83
64889;BME280;51386;53.082;8.816;2023-11-21T09:43:16;101693.78;;;12.38;62.31
64889;BME280;51386;53.082;8.816;2023-11-21T09:45:59;101694.41;;;12.32;62.47
64889;BME280;51386;53.082;8.816;2023-11-21T09:48:30;101692.91;;;12.29;62.78
64889;BME280;51386;53.082;8.816;2023-11-21T09:51:00;101701.00;;;12.28;62.28
64889;BME280;51386;53.082;8.816;2023-11-21T09:53:32;101710.59;;;12.29;62.55
64889;BME280;51386;53.082;8.816;2023-11-21T09:56:02;101718.84;;;12.34;62.83
64889;BME280;51386;53.082;8.816;2023-11-21T09:58:32;101716.34;;;12.32;62.26
64889;BME280;51386;53.082;8.816;2023-11-21T10:01:06;101721.47;;;12.26;61.83
64889;BME280;51386;53.082;8.816;2023-11-21T10:03:37;101727.88;;;12.23;62.20
64889;BME280;51386;53.082;8.816;2023-11-21T10:06:07;101725.72;;;12.27;62.20
64889;BME280;51386;53.082;8.816;2023-11-21T10:08:36;101727.75;;;12.33;62.58
64889;BME280;51386;53.082;8.816;2023-11-21T10:11:23;101737.34;;;12.42;62.33
64889;BME280;51386;53.082;8.816;2023-11-21T10:13:54;101733.06;;;12.41;61.91
64889;BME280;51386;53.082;8.816;2023-11-21T10:16:26;101741.78;;;12.41;62.23
64889;BME280;51386;53.082;8.816;2023-11-21T10:18:58;101738.66;;;12.38;62.06
64889;BME280;51386;53.082;8.816;2023-11-21T10:21:40;101742.63;;;12.34;62.01
64889;BME280;51386;53.082;8.816;2023-11-21T10:24:08;101738.78;;;12.36;62.11
64889;BME280;51386;53.082;8.816;2023-11-21T10:26:37;101743.63;;;12.41;61.62
64889;BME280;51386;53.082;8.816;2023-11-21T10:29:19;101740.47;;;12.37;61.56
64889;BME280;51386;53.082;8.816;2023-11-21T10:31:52;101745.25;;;12.42;62.06
64889;BME280;51386;53.082;8.816;2023-11-21T10:34:23;101748.25;;;12.47;62.06
64889;BME280;51386;53.082;8.816;2023-11-21T10:36:51;101751.88;;;12.54;62.01
64889;BME280;51386;53.082;8.816;2023-11-21T10:39:20;101749.91;;;12.56;61.38
64889;BME280;51386;53.082;8.816;2023-11-21T10:41:53;101752.53;;;12.56;61.16
64889;BME280;51386;53.082;8.816;2023-11-21T10:44:24;101749.59;;;12.59;61.35
64889;BME280;51386;53.082;8.816;2023-11-21T10:46:54;101748.44;;;12.61;60.91
64889;BME280;51386;53.082;8.816;2023-11-21T10:49:28;101751.41;;;12.66;61.05
64889;BME280;51386;53.082;8.816;2023-11-21T10:51:57;101753.56;;;12.71;60.87
64889;BME280;51386;53.082;8.816;2023-11-21T10:54:29;101757.88;;;12.80;61.09
64889;BME280;51386;53.082;8.816;2023-11-21T10:56:59;101747.97;;;12.90;61.13
64889;BME280;51386;53.082;8.816;2023-11-21T10:59:30;101756.41;;;13.02;60.92
64889;BME280;51386;53.082;8.816;2023-11-21T11:02:10;101765.81;;;13.04;59.80
64889;BME280;51386;53.082;8.816;2023-11-21T11:05:02;101765.16;;;13.10;60.01
64889;BME280;51386;53.082;8.816;2023-11-21T11:07:34;101763.19;;;13.12;60.07
64889;BME280;51386;53.082;8.816;2023-11-21T11:10:05;101768.16;;;13.15;59.98
64889;BME280;51386;53.082;8.816;2023-11-21T11:12:39;101768.47;;;13.12;59.28
64889;BME280;51386;53.082;8.816;2023-11-21T11:15:08;101778.06;;;13.13;60.10
64889;BME280;51386;53.082;8.816;2023-11-21T11:17:43;101787.31;;;13.17;59.94
64889;BME280;51386;53.082;8.816;2023-11-21T11:20:37;101782.38;;;13.14;59.20
64889;BME280;51386;53.082;8.816;2023-11-21T11:26:34;101788.47;;;13.15;58.58
64889;BME280;51386;53.082;8.816;2023-11-21T11:29:28;101794.59;;;13.15;59.18
64889;BME280;51386;53.082;8.816;2023-11-21T11:32:16;101792.94;;;13.14;59.51
64889;BME280;51386;53.082;8.816;2023-11-21T11:35:18;101799.22;;;13.13;59.27
64889;BME280;51386;53.082;8.816;2023-11-21T11:37:53;101807.16;;;13.21;59.25
64889;BME280;51386;53.082;8.816;2023-11-21T11:40:22;101805.00;;;13.25;59.55
64889;BME280;51386;53.082;8.816;2023-11-21T11:42:57;101795.25;;;13.17;58.77
64889;BME280;51386;53.082;8.816;2023-11-21T11:45:34;101790.97;;;13.16;59.04
64889;BME280;51386;53.082;8.816;2023-11-21T11:48:05;101790.59;;;13.19;59.86
64889;BME280;51386;53.082;8.816;2023-11-21T11:50:34;101783.00;;;13.24;59.43
64889;BME280;51386;53.082;8.816;2023-11-21T11:53:14;101788.47;;;13.31;59.89
64889;BME280;51386;53.082;8.816;2023-11-21T11:55:43;101794.59;;;13.47;59.81
64889;BME280;51386;53.082;8.816;2023-11-21T11:58:12;101788.94;;;13.58;59.99
64889;BME280;51386;53.082;8.816;2023-11-21T12:00:41;101798.34;;;13.69;59.57
64889;BME280;51386;53.082;8.816;2023-11-21T12:03:10;101801.28;;;13.74;59.00
64889;BME280;51386;53.082;8.816;2023-11-21T12:05:40;101804.13;;;13.73;58.36
64889;BME280;51386;53.082;8.816;2023-11-21T12:08:12;101810.75;;;13.61;57.20
64889;BME280;51386;53.082;8.816;2023-11-21T12:10:40;101813.41;;;13.52;58.19
64889;BME280;51386;53.082;8.816;2023-11-21T12:13:10;101819.03;;;13.49;58.66
64889;BME280;51386;53.082;8.816;2023-11-21T12:15:40;101828.78;;;13.49;59.02
64889;BME280;51386;53.082;8.816;2023-11-21T12:18:09;101835.56;;;13.51;58.90
64889;BME280;51386;53.082;8.816;2023-11-21T12:20:37;101836.53;;;13.50;58.66
64889;BME280;51386;53.082;8.816;2023-11-21T12:23:10;101843.16;;;13.46;58.72
64889;BME280;51386;53.082;8.816;2023-11-21T12:25:39;101838.56;;;13.40;57.80
64889;BME280;51386;53.082;8.816;2023-11-21T12:28:09;101845.81;;;13.30;58.33
64889;BME280;51386;53.082;8.816;2023-11-21T12:30:39;101845.81;;;13.30;58.50
64889;BME280;51386;53.082;8.816;2023-11-21T12:33:07;101849.13;;;13.32;58.24
64889;BME280;51386;53.082;8.816;2023-11-21T12:35:37;101847.44;;;13.31;58.38
64889;BME280;51386;53.082;8.816;2023-11-21T12:38:06;101857.06;;;13.32;58.25
64889;BME280;51386;53.082;8.816;2023-11-21T12:40:37;101852.75;;;13.31;58.45
64889;BME280;51386;53.082;8.816;2023-11-21T12:43:07;101859.69;;;13.32;58.80
64889;BME280;51386;53.082;8.816;2023-11-21T12:45:36;101862.69;;;13.37;58.74
64889;BME280;51386;53.082;8.816;2023-11-21T12:48:06;101862.34;;;13.40;58.73
64889;BME280;51386;53.082;8.816;2023-11-21T12:50:39;101863.50;;;13.46;58.93
64889;BME280;51386;53.082;8.816;2023-11-21T12:53:10;101865.63;;;13.50;58.84
64889;BME280;51386;53.082;8.816;2023-11-21T12:55:44;101878.22;;;13.56;59.01
64889;BME280;51386;53.082;8.816;2023-11-21T12:58:20;101873.25;;;13.62;58.98
64889;BME280;51386;53.082;8.816;2023-11-21T13:00:49;101878.38;;;13.63;58.40
64889;BME280;51386;53.082;8.816;2023-11-21T13:03:19;101886.13;;;13.65;58.48
64889;BME280;51386;53.082;8.816;2023-11-21T13:05:53;101890.13;;;13.69;58.65
64889;BME280;51386;53.082;8.816;2023-11-21T13:08:25;101891.78;;;13.62;57.54